Disclaimer

Please do not use the information listed here in-flight or in-navigation, as they are not provided to us by the airports but are provided by volunteers, so they might be outdated.

Search


Regions


Airport information page

Radio informations:
Tower (TWR) - 120.8 MHz
Ground (GND) - 129.95 MHz
PRECISION - 125.2 MHz
Approach (APP) - 118.25 MHz

Airport informations:
Latitude: 44° 30' 11.50" N
Longitude: 026° 06' 07.60" E
Elevation: 297 feet - 91 meters
Operating hours: N/A
Operating agency: Civil government, landing fees and diplomatic clearance may be required
Timezone: UTC+2(+3DT)
Fuel: N/A

Runway information:
07/25 - 10499 x 148 feet< - >3200 x 45 meters

Recent METARs:
LRBS 202230Z 05014KT 010V090 3000 -RA BR OVC005 01/01 Q1021 R07/29//95 NOSIG
LRBS 202300Z 05013KT 020V080 3000 -RA BR OVC005 01/01 Q1021 R07/29//95 NOSIG
LRBS 202330Z 05012KT 020V090 3500 -RA BR OVC005 01/01 Q1021 R07/29//95 NOSIG

Airport on the map: